sensor_id;sensor_type;location;lat;lon;timestamp;P1;durP1;ratioP1;P2;durP2;ratioP2
10795;SDS011;5450;42.994;23.372;2022-09-03T00:01:07;0.80;;;0.80;;
10795;SDS011;5450;42.994;23.372;2022-09-03T00:04:21;0.83;;;0.83;;
10795;SDS011;5450;42.994;23.372;2022-09-03T00:07:14;0.60;;;0.57;;
10795;SDS011;5450;42.994;23.372;2022-09-03T00:09:43;0.80;;;0.80;;
10795;SDS011;5450;42.994;23.372;2022-09-03T00:19:50;0.70;;;0.70;;
10795;SDS011;5450;42.994;23.372;2022-09-03T00:22:58;0.93;;;0.93;;
10795;SDS011;5450;42.994;23.372;2022-09-03T00:26:28;1.60;;;1.50;;
10795;SDS011;5450;42.994;23.372;2022-09-03T00:29:35;1.27;;;1.27;;
10795;SDS011;5450;42.994;23.372;2022-09-03T00:35:18;1.60;;;1.47;;
10795;SDS011;5450;42.994;23.372;2022-09-03T00:36:23;1.90;;;1.70;;
10795;SDS011;5450;42.994;23.372;2022-09-03T00:39:41;1.93;;;1.30;;
10795;SDS011;5450;42.994;23.372;2022-09-03T00:42:37;1.47;;;1.43;;
10795;SDS011;5450;42.994;23.372;2022-09-03T00:45:24;3.00;;;1.40;;
10795;SDS011;5450;42.994;23.372;2022-09-03T00:51:58;2.43;;;1.30;;
10795;SDS011;5450;42.994;23.372;2022-09-03T00:55:11;1.53;;;1.50;;
10795;SDS011;5450;42.994;23.372;2022-09-03T01:01:44;1.63;;;1.37;;
10795;SDS011;5450;42.994;23.372;2022-09-03T01:04:38;1.07;;;1.07;;
10795;SDS011;5450;42.994;23.372;2022-09-03T01:07:18;1.60;;;1.50;;
10795;SDS011;5450;42.994;23.372;2022-09-03T01:10:25;1.77;;;1.67;;
10795;SDS011;5450;42.994;23.372;2022-09-03T01:13:42;1.63;;;1.53;;
10795;SDS011;5450;42.994;23.372;2022-09-03T01:16:48;1.47;;;1.47;;
10795;SDS011;5450;42.994;23.372;2022-09-03T01:20:44;1.93;;;1.67;;
10795;SDS011;5450;42.994;23.372;2022-09-03T01:26:38;1.73;;;1.23;;
10795;SDS011;5450;42.994;23.372;2022-09-03T01:32:49;1.40;;;1.40;;
10795;SDS011;5450;42.994;23.372;2022-09-03T01:35:43;1.37;;;1.37;;
10795;SDS011;5450;42.994;23.372;2022-09-03T01:38:31;1.97;;;1.70;;
10795;SDS011;5450;42.994;23.372;2022-09-03T01:41:22;1.47;;;1.47;;
10795;SDS011;5450;42.994;23.372;2022-09-03T01:44:31;2.40;;;2.10;;
10795;SDS011;5450;42.994;23.372;2022-09-03T01:47:48;2.93;;;2.73;;
10795;SDS011;5450;42.994;23.372;2022-09-03T01:50:37;3.40;;;3.20;;
10795;SDS011;5450;42.994;23.372;2022-09-03T01:53:40;3.07;;;2.87;;
10795;SDS011;5450;42.994;23.372;2022-09-03T01:56:53;4.20;;;3.20;;
10795;SDS011;5450;42.994;23.372;2022-09-03T01:59:52;3.73;;;3.13;;
10795;SDS011;5450;42.994;23.372;2022-09-03T02:02:51;3.30;;;3.10;;
10795;SDS011;5450;42.994;23.372;2022-09-03T02:06:40;3.23;;;3.13;;
10795;SDS011;5450;42.994;23.372;2022-09-03T02:15:24;3.43;;;3.23;;
10795;SDS011;5450;42.994;23.372;2022-09-03T02:22:11;3.57;;;3.37;;
10795;SDS011;5450;42.994;23.372;2022-09-03T02:24:46;3.30;;;3.10;;
10795;SDS011;5450;42.994;23.372;2022-09-03T02:27:33;3.30;;;3.20;;
10795;SDS011;5450;42.994;23.372;2022-09-03T02:30:14;4.20;;;3.30;;
10795;SDS011;5450;42.994;23.372;2022-09-03T02:33:19;3.73;;;2.67;;
10795;SDS011;5450;42.994;23.372;2022-09-03T02:39:53;3.53;;;3.33;;
10795;SDS011;5450;42.994;23.372;2022-09-03T02:42:42;3.53;;;3.20;;
10795;SDS011;5450;42.994;23.372;2022-09-03T02:45:26;3.17;;;3.03;;
10795;SDS011;5450;42.994;23.372;2022-09-03T02:52:00;3.60;;;3.40;;
10795;SDS011;5450;42.994;23.372;2022-09-03T03:16:16;3.67;;;3.30;;
10795;SDS011;5450;42.994;23.372;2022-09-03T03:19:10;3.60;;;3.40;;
10795;SDS011;5450;42.994;23.372;2022-09-03T03:22:04;2.83;;;2.73;;
10795;SDS011;5450;42.994;23.372;2022-09-03T03:24:57;3.37;;;3.17;;
10795;SDS011;5450;42.994;23.372;2022-09-03T03:27:38;2.90;;;2.70;;
10795;SDS011;5450;42.994;23.372;2022-09-03T04:27:24;4.37;;;4.07;;
10795;SDS011;5450;42.994;23.372;2022-09-03T06:22:36;5.00;;;4.60;;
10795;SDS011;5450;42.994;23.372;2022-09-03T06:25:44;5.00;;;4.60;;
10795;SDS011;5450;42.994;23.372;2022-09-03T06:28:11;4.67;;;4.37;;
10795;SDS011;5450;42.994;23.372;2022-09-03T06:30:38;4.67;;;4.37;;
10795;SDS011;5450;42.994;23.372;2022-09-03T06:33:06;4.47;;;4.17;;
10795;SDS011;5450;42.994;23.372;2022-09-03T06:35:37;4.50;;;4.20;;
10795;SDS011;5450;42.994;23.372;2022-09-03T06:38:05;4.47;;;4.17;;
10795;SDS011;5450;42.994;23.372;2022-09-03T06:40:36;4.60;;;4.30;;
10795;SDS011;5450;42.994;23.372;2022-09-03T06:43:03;4.97;;;4.57;;
10795;SDS011;5450;42.994;23.372;2022-09-03T06:45:30;5.37;;;4.97;;
10795;SDS011;5450;42.994;23.372;2022-09-03T06:47:59;4.30;;;4.00;;
10795;SDS011;5450;42.994;23.372;2022-09-03T06:50:26;4.70;;;4.40;;
10795;SDS011;5450;42.994;23.372;2022-09-03T06:52:53;4.40;;;4.00;;
10795;SDS011;5450;42.994;23.372;2022-09-03T06:55:22;3.80;;;3.47;;
10795;SDS011;5450;42.994;23.372;2022-09-03T06:57:49;3.33;;;3.13;;
10795;SDS011;5450;42.994;23.372;2022-09-03T07:00:18;2.87;;;2.70;;
10795;SDS011;5450;42.994;23.372;2022-09-03T07:02:45;1.80;;;1.70;;
10795;SDS011;5450;42.994;23.372;2022-09-03T07:05:14;2.10;;;2.00;;
10795;SDS011;5450;42.994;23.372;2022-09-03T07:07:41;1.87;;;1.77;;
10795;SDS011;5450;42.994;23.372;2022-09-03T07:10:08;1.87;;;1.70;;
10795;SDS011;5450;42.994;23.372;2022-09-03T07:12:40;1.50;;;1.50;;
10795;SDS011;5450;42.994;23.372;2022-09-03T07:15:07;2.00;;;1.90;;
10795;SDS011;5450;42.994;23.372;2022-09-03T07:17:35;1.70;;;1.60;;
10795;SDS011;5450;42.994;23.372;2022-09-03T07:20:02;1.77;;;1.67;;
10795;SDS011;5450;42.994;23.372;2022-09-03T07:22:29;1.50;;;1.50;;
10795;SDS011;5450;42.994;23.372;2022-09-03T07:24:56;1.70;;;1.70;;
10795;SDS011;5450;42.994;23.372;2022-09-03T07:30:52;1.80;;;1.70;;
10795;SDS011;5450;42.994;23.372;2022-09-03T07:33:20;1.70;;;1.60;;
10795;SDS011;5450;42.994;23.372;2022-09-03T07:35:47;1.87;;;1.77;;
10795;SDS011;5450;42.994;23.372;2022-09-03T07:38:25;1.80;;;1.70;;
10795;SDS011;5450;42.994;23.372;2022-09-03T07:41:23;1.90;;;1.80;;
10795;SDS011;5450;42.994;23.372;2022-09-03T07:44:21;1.70;;;1.63;;
10795;SDS011;5450;42.994;23.372;2022-09-03T07:46:52;1.73;;;1.67;;
10795;SDS011;5450;42.994;23.372;2022-09-03T07:49:20;2.27;;;2.17;;
10795;SDS011;5450;42.994;23.372;2022-09-03T07:54:38;2.50;;;2.00;;
10795;SDS011;5450;42.994;23.372;2022-09-03T07:57:08;2.10;;;2.00;;
10795;SDS011;5450;42.994;23.372;2022-09-03T08:05:30;1.93;;;1.83;;
10795;SDS011;5450;42.994;23.372;2022-09-03T08:07:58;2.10;;;2.00;;
10795;SDS011;5450;42.994;23.372;2022-09-03T08:10:25;2.40;;;2.30;;
10795;SDS011;5450;42.994;23.372;2022-09-03T08:12:54;2.30;;;2.20;;
10795;SDS011;5450;42.994;23.372;2022-09-03T08:15:23;2.37;;;2.27;;
10795;SDS011;5450;42.994;23.372;2022-09-03T08:18:08;2.40;;;2.30;;
10795;SDS011;5450;42.994;23.372;2022-09-03T08:20:35;2.40;;;2.30;;
10795;SDS011;5450;42.994;23.372;2022-09-03T08:23:04;2.00;;;1.90;;
10795;SDS011;5450;42.994;23.372;2022-09-03T08:25:32;2.17;;;2.03;;
10795;SDS011;5450;42.994;23.372;2022-09-03T08:27:59;2.13;;;2.00;;
10795;SDS011;5450;42.994;23.372;2022-09-03T08:30:26;2.17;;;2.07;;
10795;SDS011;5450;42.994;23.372;2022-09-03T08:32:55;1.83;;;1.73;;
10795;SDS011;5450;42.994;23.372;2022-09-03T08:38:25;1.93;;;1.83;;
10795;SDS011;5450;42.994;23.372;2022-09-03T08:40:52;6.87;;;3.00;;
10795;SDS011;5450;42.994;23.372;2022-09-03T08:43:20;47.17;;;9.13;;
10795;SDS011;5450;42.994;23.372;2022-09-03T08:46:22;10.67;;;4.00;;
10795;SDS011;5450;42.994;23.372;2022-09-03T08:49:06;3.53;;;2.67;;
10795;SDS011;5450;42.994;23.372;2022-09-03T08:51:41;2.67;;;2.47;;
10795;SDS011;5450;42.994;23.372;2022-09-03T08:54:12;2.23;;;2.13;;
10795;SDS011;5450;42.994;23.372;2022-09-03T08:56:42;2.33;;;2.23;;
10795;SDS011;5450;42.994;23.372;2022-09-03T08:59:11;2.47;;;2.33;;
10795;SDS011;5450;42.994;23.372;2022-09-03T09:01:42;2.10;;;2.00;;
10795;SDS011;5450;42.994;23.372;2022-09-03T09:04:26;2.30;;;2.20;;
10795;SDS011;5450;42.994;23.372;2022-09-03T09:07:05;2.73;;;2.27;;
10795;SDS011;5450;42.994;23.372;2022-09-03T09:09:39;2.20;;;2.10;;
10795;SDS011;5450;42.994;23.372;2022-09-03T09:12:16;2.53;;;2.43;;
10795;SDS011;5450;42.994;23.372;2022-09-03T09:14:59;2.17;;;2.07;;
10795;SDS011;5450;42.994;23.372;2022-09-03T09:17:37;2.00;;;1.90;;
10795;SDS011;5450;42.994;23.372;2022-09-03T09:20:20;3.27;;;3.07;;
10795;SDS011;5450;42.994;23.372;2022-09-03T09:23:02;2.90;;;2.70;;
10795;SDS011;5450;42.994;23.372;2022-09-03T09:25:30;2.80;;;2.70;;
10795;SDS011;5450;42.994;23.372;2022-09-03T09:28:07;2.70;;;2.60;;
10795;SDS011;5450;42.994;23.372;2022-09-03T09:30:41;2.90;;;2.80;;
10795;SDS011;5450;42.994;23.372;2022-09-03T09:33:11;2.90;;;2.80;;
10795;SDS011;5450;42.994;23.372;2022-09-03T09:35:38;2.93;;;2.83;;
10795;SDS011;5450;42.994;23.372;2022-09-03T09:38:09;2.73;;;2.63;;
10795;SDS011;5450;42.994;23.372;2022-09-03T09:40:37;4.37;;;3.30;;
10795;SDS011;5450;42.994;23.372;2022-09-03T09:43:06;3.20;;;3.00;;
10795;SDS011;5450;42.994;23.372;2022-09-03T09:45:36;3.03;;;2.83;;
10795;SDS011;5450;42.994;23.372;2022-09-03T09:48:07;2.67;;;2.57;;
10795;SDS011;5450;42.994;23.372;2022-09-03T09:50:41;3.63;;;3.43;;
10795;SDS011;5450;42.994;23.372;2022-09-03T09:53:10;2.93;;;2.73;;
10795;SDS011;5450;42.994;23.372;2022-09-03T09:55:52;2.83;;;2.73;;
10795;SDS011;5450;42.994;23.372;2022-09-03T09:58:22;2.70;;;2.60;;
10795;SDS011;5450;42.994;23.372;2022-09-03T10:00:59;2.40;;;2.30;;
10795;SDS011;5450;42.994;23.372;2022-09-03T10:03:32;7.30;;;6.90;;
10795;SDS011;5450;42.994;23.372;2022-09-03T10:16:29;1.90;;;1.80;;
10795;SDS011;5450;42.994;23.372;2022-09-03T10:22:38;2.50;;;2.40;;
10795;SDS011;5450;42.994;23.372;2022-09-03T10:26:06;3.00;;;2.80;;
10795;SDS011;5450;42.994;23.372;2022-09-03T10:28:37;3.40;;;3.20;;
10795;SDS011;5450;42.994;23.372;2022-09-03T10:34:15;2.87;;;2.67;;
10795;SDS011;5450;42.994;23.372;2022-09-03T10:37:05;3.43;;;3.23;;
10795;SDS011;5450;42.994;23.372;2022-09-03T10:42:41;3.43;;;3.23;;
10795;SDS011;5450;42.994;23.372;2022-09-03T10:45:16;3.83;;;3.63;;
10795;SDS011;5450;42.994;23.372;2022-09-03T10:50:51;3.23;;;3.03;;
10795;SDS011;5450;42.994;23.372;2022-09-03T10:56:30;2.17;;;2.08;;
10795;SDS011;5450;42.994;23.372;2022-09-03T10:59:23;2.30;;;2.20;;
10795;SDS011;5450;42.994;23.372;2022-09-03T11:02:07;2.05;;;1.95;;
10795;SDS011;5450;42.994;23.372;2022-09-03T11:07:38;2.03;;;1.92;;
10795;SDS011;5450;42.994;23.372;2022-09-03T11:10:14;2.20;;;2.10;;
10795;SDS011;5450;42.994;23.372;2022-09-03T11:13:02;2.53;;;2.42;;
10795;SDS011;5450;42.994;23.372;2022-09-03T11:15:47;2.10;;;2.00;;
10795;SDS011;5450;42.994;23.372;2022-09-03T11:18:30;2.22;;;2.13;;
10795;SDS011;5450;42.994;23.372;2022-09-03T11:21:05;3.03;;;2.93;;
10795;SDS011;5450;42.994;23.372;2022-09-03T11:23:37;3.50;;;3.30;;
10795;SDS011;5450;42.994;23.372;2022-09-03T11:26:09;2.78;;;2.67;;
10795;SDS011;5450;42.994;23.372;2022-09-03T11:28:42;2.95;;;2.78;;
10795;SDS011;5450;42.994;23.372;2022-09-03T11:31:22;2.95;;;2.85;;
10795;SDS011;5450;42.994;23.372;2022-09-03T11:34:05;3.40;;;3.20;;
10795;SDS011;5450;42.994;23.372;2022-09-03T11:36:42;2.73;;;2.63;;
10795;SDS011;5450;42.994;23.372;2022-09-03T11:39:12;3.00;;;2.90;;
10795;SDS011;5450;42.994;23.372;2022-09-03T11:41:57;3.10;;;3.00;;
10795;SDS011;5450;42.994;23.372;2022-09-03T11:44:34;3.07;;;2.87;;
10795;SDS011;5450;42.994;23.372;2022-09-03T11:47:11;3.40;;;3.20;;
10795;SDS011;5450;42.994;23.372;2022-09-03T11:49:43;2.97;;;2.78;;
10795;SDS011;5450;42.994;23.372;2022-09-03T11:52:25;3.53;;;3.33;;
10795;SDS011;5450;42.994;23.372;2022-09-03T11:54:54;2.90;;;2.80;;
10795;SDS011;5450;42.994;23.372;2022-09-03T11:57:22;2.80;;;2.70;;
10795;SDS011;5450;42.994;23.372;2022-09-03T11:59:54;3.40;;;3.20;;
10795;SDS011;5450;42.994;23.372;2022-09-03T12:02:35;3.10;;;2.90;;
10795;SDS011;5450;42.994;23.372;2022-09-03T12:05:15;3.33;;;3.03;;
10795;SDS011;5450;42.994;23.372;2022-09-03T12:07:59;2.70;;;2.60;;
10795;SDS011;5450;42.994;23.372;2022-09-03T12:10:54;2.90;;;2.80;;
10795;SDS011;5450;42.994;23.372;2022-09-03T12:13:32;2.60;;;2.50;;
10795;SDS011;5450;42.994;23.372;2022-09-03T12:16:21;2.70;;;2.60;;
10795;SDS011;5450;42.994;23.372;2022-09-03T12:19:02;2.73;;;2.63;;
10795;SDS011;5450;42.994;23.372;2022-09-03T12:21:36;2.70;;;2.60;;
10795;SDS011;5450;42.994;23.372;2022-09-03T12:24:07;2.80;;;2.70;;
10795;SDS011;5450;42.994;23.372;2022-09-03T12:26:38;2.83;;;2.73;;
10795;SDS011;5450;42.994;23.372;2022-09-03T12:29:17;2.73;;;2.63;;
10795;SDS011;5450;42.994;23.372;2022-09-03T12:31:48;3.30;;;3.10;;
10795;SDS011;5450;42.994;23.372;2022-09-03T12:34:17;2.57;;;2.47;;
10795;SDS011;5450;42.994;23.372;2022-09-03T12:36:47;2.93;;;2.73;;
10795;SDS011;5450;42.994;23.372;2022-09-03T12:39:19;2.80;;;2.70;;
10795;SDS011;5450;42.994;23.372;2022-09-03T12:41:53;3.80;;;3.60;;
10795;SDS011;5450;42.994;23.372;2022-09-03T12:44:42;3.00;;;2.90;;
10795;SDS011;5450;42.994;23.372;2022-09-03T12:47:10;2.80;;;2.70;;
10795;SDS011;5450;42.994;23.372;2022-09-03T12:49:40;3.00;;;2.90;;
10795;SDS011;5450;42.994;23.372;2022-09-03T12:52:10;2.90;;;2.70;;
10795;SDS011;5450;42.994;23.372;2022-09-03T12:54:45;3.03;;;2.93;;
10795;SDS011;5450;42.994;23.372;2022-09-03T12:57:19;3.00;;;2.90;;
10795;SDS011;5450;42.994;23.372;2022-09-03T12:59:51;2.93;;;2.83;;
10795;SDS011;5450;42.994;23.372;2022-09-03T13:02:24;3.00;;;2.80;;
10795;SDS011;5450;42.994;23.372;2022-09-03T13:05:16;3.03;;;2.93;;
10795;SDS011;5450;42.994;23.372;2022-09-03T13:07:48;3.13;;;3.03;;
10795;SDS011;5450;42.994;23.372;2022-09-03T13:10:24;3.50;;;3.30;;
10795;SDS011;5450;42.994;23.372;2022-09-03T13:12:57;3.07;;;2.97;;
10795;SDS011;5450;42.994;23.372;2022-09-03T13:15:25;4.00;;;3.80;;
10795;SDS011;5450;42.994;23.372;2022-09-03T13:17:58;3.13;;;2.97;;
10795;SDS011;5450;42.994;23.372;2022-09-03T13:20:51;3.80;;;3.60;;
10795;SDS011;5450;42.994;23.372;2022-09-03T13:23:34;3.60;;;3.40;;
10795;SDS011;5450;42.994;23.372;2022-09-03T13:26:20;3.57;;;3.37;;
10795;SDS011;5450;42.994;23.372;2022-09-03T13:29:06;3.70;;;3.50;;
10795;SDS011;5450;42.994;23.372;2022-09-03T13:31:49;3.57;;;3.47;;
10795;SDS011;5450;42.994;23.372;2022-09-03T13:34:21;3.70;;;3.50;;
10795;SDS011;5450;42.994;23.372;2022-09-03T13:36:57;3.37;;;3.07;;
10795;SDS011;5450;42.994;23.372;2022-09-03T13:39:37;3.87;;;3.67;;
10795;SDS011;5450;42.994;23.372;2022-09-03T13:42:10;3.70;;;3.50;;
10795;SDS011;5450;42.994;23.372;2022-09-03T13:44:44;3.43;;;3.23;;
10795;SDS011;5450;42.994;23.372;2022-09-03T13:47:18;3.50;;;3.30;;
10795;SDS011;5450;42.994;23.372;2022-09-03T13:49:53;3.67;;;3.47;;
10795;SDS011;5450;42.994;23.372;2022-09-03T13:52:46;3.57;;;3.37;;
10795;SDS011;5450;42.994;23.372;2022-09-03T13:55:23;3.70;;;3.40;;
10795;SDS011;5450;42.994;23.372;2022-09-03T13:57:56;3.57;;;3.37;;
10795;SDS011;5450;42.994;23.372;2022-09-03T14:00:28;3.47;;;3.27;;
10795;SDS011;5450;42.994;23.372;2022-09-03T14:03:03;3.50;;;3.30;;
10795;SDS011;5450;42.994;23.372;2022-09-03T14:05:40;3.00;;;2.90;;
10795;SDS011;5450;42.994;23.372;2022-09-03T14:08:19;3.60;;;3.40;;
10795;SDS011;5450;42.994;23.372;2022-09-03T14:10:59;3.53;;;3.40;;
10795;SDS011;5450;42.994;23.372;2022-09-03T14:13:40;3.17;;;2.97;;
10795;SDS011;5450;42.994;23.372;2022-09-03T14:16:23;3.37;;;3.17;;
10795;SDS011;5450;42.994;23.372;2022-09-03T14:19:04;3.60;;;3.30;;
10795;SDS011;5450;42.994;23.372;2022-09-03T14:21:38;4.00;;;3.80;;
10795;SDS011;5450;42.994;23.372;2022-09-03T14:24:12;3.37;;;3.17;;
10795;SDS011;5450;42.994;23.372;2022-09-03T14:26:50;3.50;;;3.30;;
10795;SDS011;5450;42.994;23.372;2022-09-03T14:29:23;3.43;;;3.27;;
10795;SDS011;5450;42.994;23.372;2022-09-03T14:35:14;3.43;;;3.23;;
10795;SDS011;5450;42.994;23.372;2022-09-03T14:44:21;4.50;;;4.20;;
10795;SDS011;5450;42.994;23.372;2022-09-03T14:45:26;4.60;;;4.30;;
10795;SDS011;5450;42.994;23.372;2022-09-03T14:48:10;4.27;;;4.00;;
10795;SDS011;5450;42.994;23.372;2022-09-03T14:50:55;3.90;;;3.70;;
10795;SDS011;5450;42.994;23.372;2022-09-03T14:53:46;5.03;;;4.40;;
10795;SDS011;5450;42.994;23.372;2022-09-03T14:56:33;10.27;;;9.20;;
10795;SDS011;5450;42.994;23.372;2022-09-03T15:02:13;6.50;;;5.90;;
10795;SDS011;5450;42.994;23.372;2022-09-03T15:04:56;6.23;;;5.77;;
10795;SDS011;5450;42.994;23.372;2022-09-03T15:07:44;4.27;;;4.07;;
10795;SDS011;5450;42.994;23.372;2022-09-03T15:10:20;5.90;;;5.50;;
10795;SDS011;5450;42.994;23.372;2022-09-03T15:12:54;4.23;;;4.03;;
10795;SDS011;5450;42.994;23.372;2022-09-03T15:15:26;3.87;;;3.67;;
10795;SDS011;5450;42.994;23.372;2022-09-03T15:18:07;4.17;;;3.97;;
10795;SDS011;5450;42.994;23.372;2022-09-03T15:20:51;3.90;;;3.70;;
10795;SDS011;5450;42.994;23.372;2022-09-03T15:23:22;4.27;;;4.00;;
10795;SDS011;5450;42.994;23.372;2022-09-03T15:42:51;3.93;;;3.73;;
10795;SDS011;5450;42.994;23.372;2022-09-03T15:46:13;4.33;;;4.13;;
10795;SDS011;5450;42.994;23.372;2022-09-03T15:48:55;4.77;;;4.47;;
10795;SDS011;5450;42.994;23.372;2022-09-03T15:52:05;4.90;;;4.60;;
10795;SDS011;5450;42.994;23.372;2022-09-03T17:52:30;4.23;;;4.03;;
10795;SDS011;5450;42.994;23.372;2022-09-03T17:55:34;4.73;;;4.43;;
10795;SDS011;5450;42.994;23.372;2022-09-03T17:58:34;4.80;;;4.50;;
10795;SDS011;5450;42.994;23.372;2022-09-03T18:01:28;5.20;;;4.50;;
10795;SDS011;5450;42.994;23.372;2022-09-03T18:07:59;4.87;;;4.57;;
10795;SDS011;5450;42.994;23.372;2022-09-03T18:10:32;5.00;;;4.70;;
10795;SDS011;5450;42.994;23.372;2022-09-03T18:31:00;4.73;;;4.30;;
10795;SDS011;5450;42.994;23.372;2022-09-03T18:34:07;5.10;;;4.80;;
10795;SDS011;5450;42.994;23.372;2022-09-03T18:37:34;4.30;;;4.00;;
10795;SDS011;5450;42.994;23.372;2022-09-03T18:40:34;5.17;;;4.87;;
10795;SDS011;5450;42.994;23.372;2022-09-03T18:43:39;4.97;;;4.63;;
10795;SDS011;5450;42.994;23.372;2022-09-03T19:04:44;4.70;;;4.40;;
10795;SDS011;5450;42.994;23.372;2022-09-03T19:07:46;4.60;;;4.30;;
10795;SDS011;5450;42.994;23.372;2022-09-03T19:12:11;5.03;;;4.73;;
10795;SDS011;5450;42.994;23.372;2022-09-03T20:18:50;6.53;;;5.93;;
10795;SDS011;5450;42.994;23.372;2022-09-03T20:21:28;5.57;;;5.13;;
10795;SDS011;5450;42.994;23.372;2022-09-03T20:28:15;5.90;;;5.50;;
10795;SDS011;5450;42.994;23.372;2022-09-03T20:31:05;4.93;;;4.53;;
10795;SDS011;5450;42.994;23.372;2022-09-03T20:54:52;5.57;;;5.10;;
10795;SDS011;5450;42.994;23.372;2022-09-03T20:58:00;5.23;;;4.87;;
10795;SDS011;5450;42.994;23.372;2022-09-03T21:00:38;5.33;;;5.00;;
10795;SDS011;5450;42.994;23.372;2022-09-03T21:03:13;5.17;;;4.80;;
10795;SDS011;5450;42.994;23.372;2022-09-03T21:05:46;5.37;;;4.97;;
10795;SDS011;5450;42.994;23.372;2022-09-03T21:08:24;6.33;;;5.73;;
10795;SDS011;5450;42.994;23.372;2022-09-03T21:11:18;6.47;;;5.97;;
10795;SDS011;5450;42.994;23.372;2022-09-03T21:13:53;6.10;;;5.70;;
10795;SDS011;5450;42.994;23.372;2022-09-03T21:16:28;5.87;;;5.47;;
10795;SDS011;5450;42.994;23.372;2022-09-03T21:19:05;6.47;;;5.97;;
10795;SDS011;5450;42.994;23.372;2022-09-03T21:21:44;5.80;;;5.40;;
10795;SDS011;5450;42.994;23.372;2022-09-03T21:24:25;6.07;;;5.67;;
10795;SDS011;5450;42.994;23.372;2022-09-03T21:27:01;6.37;;;5.27;;
10795;SDS011;5450;42.994;23.372;2022-09-03T21:29:37;5.67;;;5.23;;
10795;SDS011;5450;42.994;23.372;2022-09-03T21:32:07;5.97;;;5.57;;
10795;SDS011;5450;42.994;23.372;2022-09-03T21:34:40;5.27;;;4.97;;
10795;SDS011;5450;42.994;23.372;2022-09-03T21:37:15;6.27;;;5.80;;
10795;SDS011;5450;42.994;23.372;2022-09-03T21:39:46;6.20;;;5.70;;
10795;SDS011;5450;42.994;23.372;2022-09-03T21:42:21;5.77;;;5.37;;
10795;SDS011;5450;42.994;23.372;2022-09-03T21:44:54;6.20;;;5.57;;
10795;SDS011;5450;42.994;23.372;2022-09-03T21:47:26;5.57;;;5.27;;
10795;SDS011;5450;42.994;23.372;2022-09-03T21:50:02;5.87;;;5.47;;
10795;SDS011;5450;42.994;23.372;2022-09-03T21:52:36;8.67;;;5.40;;
10795;SDS011;5450;42.994;23.372;2022-09-03T21:55:18;5.70;;;5.30;;
10795;SDS011;5450;42.994;23.372;2022-09-03T21:57:50;5.57;;;5.27;;
10795;SDS011;5450;42.994;23.372;2022-09-03T22:00:38;5.63;;;5.23;;
10795;SDS011;5450;42.994;23.372;2022-09-03T22:03:05;6.07;;;5.50;;
10795;SDS011;5450;42.994;23.372;2022-09-03T22:05:36;5.50;;;5.10;;
10795;SDS011;5450;42.994;23.372;2022-09-03T22:08:11;5.50;;;5.10;;
10795;SDS011;5450;42.994;23.372;2022-09-03T22:10:57;5.70;;;5.40;;
10795;SDS011;5450;42.994;23.372;2022-09-03T22:13:31;5.50;;;5.10;;
10795;SDS011;5450;42.994;23.372;2022-09-03T22:16:11;5.40;;;5.00;;
10795;SDS011;5450;42.994;23.372;2022-09-03T22:18:47;6.30;;;5.43;;
10795;SDS011;5450;42.994;23.372;2022-09-03T22:21:17;5.67;;;5.23;;
10795;SDS011;5450;42.994;23.372;2022-09-03T22:23:54;5.63;;;5.23;;
10795;SDS011;5450;42.994;23.372;2022-09-03T22:26:39;5.63;;;5.23;;
10795;SDS011;5450;42.994;23.372;2022-09-03T22:29:18;5.60;;;5.23;;
10795;SDS011;5450;42.994;23.372;2022-09-03T22:31:58;6.17;;;5.67;;
10795;SDS011;5450;42.994;23.372;2022-09-03T22:34:47;5.67;;;5.27;;
10795;SDS011;5450;42.994;23.372;2022-09-03T22:37:30;5.33;;;4.93;;
10795;SDS011;5450;42.994;23.372;2022-09-03T22:40:09;6.30;;;5.73;;
10795;SDS011;5450;42.994;23.372;2022-09-03T22:42:46;6.07;;;5.47;;
10795;SDS011;5450;42.994;23.372;2022-09-03T22:45:35;5.70;;;5.20;;
10795;SDS011;5450;42.994;23.372;2022-09-03T22:48:20;5.27;;;4.87;;
10795;SDS011;5450;42.994;23.372;2022-09-03T22:50:55;5.03;;;4.73;;
10795;SDS011;5450;42.994;23.372;2022-09-03T22:53:28;6.00;;;5.43;;
10795;SDS011;5450;42.994;23.372;2022-09-03T22:56:06;4.70;;;4.40;;
10795;SDS011;5450;42.994;23.372;2022-09-03T22:58:36;5.43;;;5.00;;
10795;SDS011;5450;42.994;23.372;2022-09-03T23:01:08;5.57;;;5.10;;
10795;SDS011;5450;42.994;23.372;2022-09-03T23:03:44;5.40;;;4.90;;
10795;SDS011;5450;42.994;23.372;2022-09-03T23:06:19;5.27;;;4.77;;
10795;SDS011;5450;42.994;23.372;2022-09-03T23:08:51;4.90;;;4.60;;
10795;SDS011;5450;42.994;23.372;2022-09-03T23:11:24;5.13;;;4.80;;
10795;SDS011;5450;42.994;23.372;2022-09-03T23:13:59;5.33;;;5.00;;
10795;SDS011;5450;42.994;23.372;2022-09-03T23:16:32;4.90;;;4.50;;
10795;SDS011;5450;42.994;23.372;2022-09-03T23:19:07;5.27;;;4.87;;
10795;SDS011;5450;42.994;23.372;2022-09-03T23:21:48;4.93;;;4.53;;
10795;SDS011;5450;42.994;23.372;2022-09-03T23:24:24;4.83;;;4.53;;
10795;SDS011;5450;42.994;23.372;2022-09-03T23:26:55;4.83;;;4.53;;
10795;SDS011;5450;42.994;23.372;2022-09-03T23:29:31;4.77;;;4.47;;
10795;SDS011;5450;42.994;23.372;2022-09-03T23:32:06;5.27;;;4.97;;
10795;SDS011;5450;42.994;23.372;2022-09-03T23:34:35;5.40;;;5.00;;
10795;SDS011;5450;42.994;23.372;2022-09-03T23:37:12;4.97;;;4.57;;
10795;SDS011;5450;42.994;23.372;2022-09-03T23:39:52;4.40;;;4.10;;
10795;SDS011;5450;42.994;23.372;2022-09-03T23:42:36;4.60;;;4.30;;
10795;SDS011;5450;42.994;23.372;2022-09-03T23:45:16;4.80;;;4.50;;
10795;SDS011;5450;42.994;23.372;2022-09-03T23:47:52;5.07;;;4.67;;
10795;SDS011;5450;42.994;23.372;2022-09-03T23:50:30;5.10;;;4.80;;
10795;SDS011;5450;42.994;23.372;2022-09-03T23:53:14;4.60;;;4.30;;
10795;SDS011;5450;42.994;23.372;2022-09-03T23:55:53;4.80;;;4.47;;
10795;SDS011;5450;42.994;23.372;2022-09-03T23:58:32;4.60;;;4.30;;
